KSAT/SAT METAR and TAF weather

Enter ICAO airport designator
Station Type Date Time Source
KSAT METAR 2021/01/20 22:51 UTC NOAA

KSAT 202251Z 30004KT 1 1/2SM R13R/6000VP6000FT -RA BR OVC004 11/10 A3019 RMK AO2 SFC VIS 2 DZE2153RAB2157 SLP214 P0001 T01110100


Station Type Date Time Source
KSAT Decoded METAR 2021/01/20 22:51 UTC NOAA

SAN ANTONIO INTERNATIONAL AIRPORT , TX, United States (KSAT) 29-32N 098-28W 243M
Jan 20, 2021 - 05:51 PM EST / 2021.01.20 2251 UTC
Wind: from the WNW (300 degrees) at 5 MPH (4 KT):0
Visibility: 1 1/2 mile(s):0
Sky conditions: overcast
Weather: light rain; mist
Precipitation last hour: 0.01 inches
Temperature: 52.0 F (11.1 C)
Dew Point: 50.0 F (10.0 C)
Relative Humidity: 92%
Pressure (altimeter): 30.19 in. Hg (1022 hPa)
ob: KSAT 202251Z 30004KT 1 1/2SM R13R/6000VP6000FT -RA BR OVC004 11/10 A3019 RMK AO2 SFC VIS 2 DZE2153RAB2157 SLP214 P0001 T01110100
cycle: 23

Station Type Date Time Source
KSAT TAF 2021/01/20 21:58 UTC NOAA

TAF
AMD KSAT 202056Z 2021/2124 VRB03KT 5SM BR VCSH OVC005
TEMPO 2021/2024 2SM -DZ OVC004
FM210300 00000KT P6SM OVC006
FM211400 VRB04KT 6SM BR VCSH OVC009
FM212200 VRB04KT P6SM OVC011

Example: see airport list